createdAt,value
2022-08-16T00:03:46.816Z,19.48
2022-08-16T00:08:50.453Z,19.60
2022-08-16T00:13:56.163Z,19.58
2022-08-16T00:19:01.256Z,19.47
2022-08-16T00:24:06.388Z,19.46
2022-08-16T00:29:18.162Z,19.49
2022-08-16T00:34:44.273Z,19.49
2022-08-16T00:39:58.093Z,19.49
2022-08-16T00:45:09.697Z,19.54
2022-08-16T00:50:17.134Z,19.42
2022-08-16T00:55:23.717Z,19.26
2022-08-16T01:00:29.264Z,19.28
2022-08-16T01:05:34.809Z,19.23
2022-08-16T01:10:38.511Z,19.25
2022-08-16T01:15:52.673Z,19.20
2022-08-16T01:21:06.049Z,19.27
2022-08-16T01:26:34.907Z,19.40
2022-08-16T01:31:35.222Z,19.45
2022-08-16T01:36:47.293Z,19.37
2022-08-16T01:42:07.720Z,19.44
2022-08-16T01:47:16.431Z,19.52
2022-08-16T01:52:28.306Z,19.45
2022-08-16T01:57:53.879Z,19.32
2022-08-16T02:03:01.141Z,19.37
2022-08-16T02:08:06.499Z,19.42
2022-08-16T02:13:13.358Z,19.44
2022-08-16T02:18:18.590Z,19.46
2022-08-16T02:23:22.516Z,19.54
2022-08-16T02:28:27.458Z,19.68
2022-08-16T02:33:43.843Z,19.77
2022-08-16T02:39:04.934Z,19.73
2022-08-16T02:44:13.746Z,19.65
2022-08-16T02:49:21.892Z,19.62
2022-08-16T02:54:36.828Z,19.54
2022-08-16T02:59:43.514Z,19.46
2022-08-16T03:04:51.146Z,19.42
2022-08-16T03:10:00.213Z,19.47
2022-08-16T03:15:10.349Z,19.48
2022-08-16T03:20:18.508Z,19.43
2022-08-16T03:25:22.914Z,19.37
2022-08-16T03:30:36.055Z,19.35
2022-08-16T03:35:44.001Z,19.45
2022-08-16T03:40:59.857Z,19.47
2022-08-16T03:46:07.238Z,19.40
2022-08-16T03:51:14.995Z,19.42
2022-08-16T03:56:27.237Z,19.52
2022-08-16T04:01:36.535Z,19.69
2022-08-16T04:06:40.821Z,19.90
2022-08-16T04:11:44.365Z,20.05
2022-08-16T04:16:52.897Z,20.14
2022-08-16T04:22:17.339Z,20.24
2022-08-16T04:27:31.539Z,20.32
2022-08-16T04:32:37.970Z,20.47
2022-08-16T04:37:45.453Z,20.61
2022-08-16T04:42:56.966Z,20.80
2022-08-16T04:48:05.588Z,20.92
2022-08-16T04:53:19.232Z,21.10
2022-08-16T04:58:44.562Z,21.25
2022-08-16T05:03:59.816Z,21.38
2022-08-16T05:09:08.000Z,21.55
2022-08-16T05:14:11.617Z,21.77
2022-08-16T05:19:26.061Z,21.93
2022-08-16T05:24:50.317Z,22.17
2022-08-16T05:30:02.006Z,22.46
2022-08-16T05:35:24.552Z,22.57
2022-08-16T05:40:59.724Z,22.74
2022-08-16T05:46:28.593Z,22.94
2022-08-16T05:51:38.245Z,23.20
2022-08-16T05:56:46.042Z,23.40
2022-08-16T06:01:54.605Z,23.60
2022-08-16T06:07:09.153Z,23.80
2022-08-16T06:12:33.984Z,24.02
2022-08-16T06:17:43.739Z,24.27
2022-08-16T06:22:58.929Z,24.51
2022-08-16T06:28:16.833Z,24.81
2022-08-16T06:33:22.594Z,25.06
2022-08-16T06:38:34.077Z,25.32
2022-08-16T06:43:47.695Z,25.59
2022-08-16T06:48:59.233Z,25.90
2022-08-16T06:54:04.878Z,26.01
2022-08-16T06:59:09.097Z,26.39
2022-08-16T07:04:33.022Z,26.64
2022-08-16T07:09:51.493Z,26.86
2022-08-16T07:15:00.751Z,27.04
2022-08-16T07:20:34.879Z,27.38
2022-08-16T07:25:40.366Z,27.60
2022-08-16T07:30:47.452Z,27.87
2022-08-16T07:36:04.988Z,28.19
2022-08-16T07:41:15.069Z,28.44
2022-08-16T07:46:39.459Z,28.74
2022-08-16T07:51:57.999Z,29.03
2022-08-16T07:57:11.312Z,29.05
2022-08-16T08:02:19.996Z,29.43
2022-08-16T08:07:27.658Z,29.64
2022-08-16T08:12:36.067Z,29.75
2022-08-16T08:17:44.092Z,29.84
2022-08-16T08:23:01.169Z,30.10
2022-08-16T08:28:13.837Z,30.02
2022-08-16T08:33:22.933Z,30.33
2022-08-16T08:38:44.205Z,30.27
2022-08-16T08:43:53.554Z,30.49
2022-08-16T08:48:59.267Z,30.58
2022-08-16T08:54:06.886Z,30.97
2022-08-16T08:59:20.001Z,31.30
2022-08-16T09:04:25.905Z,30.84
2022-08-16T09:09:33.404Z,31.11
2022-08-16T09:14:51.143Z,31.45
2022-08-16T09:20:04.658Z,31.80
2022-08-16T09:25:12.981Z,31.79
2022-08-16T09:30:34.378Z,32.01
2022-08-16T09:35:44.238Z,32.40
2022-08-16T09:40:48.615Z,32.39
2022-08-16T09:45:54.494Z,32.47
2022-08-16T09:50:58.761Z,33.07
2022-08-16T09:56:04.784Z,32.86
2022-08-16T10:01:16.598Z,33.18
2022-08-16T10:06:21.686Z,33.02
2022-08-16T10:11:50.377Z,33.58
2022-08-16T10:17:02.868Z,33.61
2022-08-16T10:22:06.740Z,33.75
2022-08-16T10:27:26.090Z,33.46
2022-08-16T10:32:35.626Z,34.22
2022-08-16T10:37:42.995Z,33.94
2022-08-16T10:42:47.034Z,34.35
2022-08-16T10:48:02.927Z,34.20
2022-08-16T10:53:07.852Z,34.63
2022-08-16T10:58:13.770Z,34.00
2022-08-16T11:03:42.839Z,34.43
2022-08-16T11:08:46.488Z,34.34
2022-08-16T11:14:05.836Z,34.41
2022-08-16T11:19:12.594Z,34.55
2022-08-16T11:24:39.929Z,33.07
2022-08-16T11:29:40.695Z,33.22
2022-08-16T11:35:10.242Z,33.61
2022-08-16T11:40:10.801Z,34.75
2022-08-16T11:45:16.009Z,33.41
2022-08-16T11:50:21.372Z,34.13
2022-08-16T11:55:24.855Z,33.99
2022-08-16T12:00:33.819Z,34.65
2022-08-16T12:05:55.446Z,34.88
2022-08-16T12:11:02.507Z,35.10
2022-08-16T12:16:09.229Z,34.64
2022-08-16T12:21:14.517Z,34.75
2022-08-16T12:26:18.184Z,35.35
2022-08-16T12:31:22.232Z,34.15
2022-08-16T12:36:30.428Z,34.20
2022-08-16T12:41:34.957Z,35.01
2022-08-16T12:46:38.767Z,35.36
2022-08-16T12:51:57.951Z,35.45
2022-08-16T12:57:03.455Z,33.85
2022-08-16T13:02:07.472Z,34.86
2022-08-16T13:07:17.899Z,35.13
2022-08-16T13:12:30.471Z,34.34
2022-08-16T13:17:34.079Z,34.98
2022-08-16T13:22:42.147Z,34.02
2022-08-16T13:28:01.652Z,34.71
2022-08-16T13:33:12.527Z,35.31
2022-08-16T13:38:24.495Z,34.34
2022-08-16T13:43:32.622Z,34.37
2022-08-16T13:48:44.203Z,33.90
2022-08-16T13:53:59.339Z,33.69
2022-08-16T13:59:19.668Z,34.32
2022-08-16T14:04:26.372Z,33.99
2022-08-16T14:09:36.356Z,33.07
2022-08-16T14:14:40.455Z,32.65
2022-08-16T14:19:46.330Z,32.44
2022-08-16T14:24:52.578Z,33.04
2022-08-16T14:29:58.080Z,33.00
2022-08-16T14:35:03.171Z,31.94
2022-08-16T14:40:12.244Z,31.15
2022-08-16T14:45:19.272Z,31.40
2022-08-16T14:50:25.842Z,31.69
2022-08-16T14:55:33.292Z,31.42
2022-08-16T15:00:39.959Z,31.27
2022-08-16T15:05:44.079Z,31.40
2022-08-16T15:10:49.854Z,30.92
2022-08-16T15:15:58.895Z,30.09
2022-08-16T15:21:08.439Z,30.28
2022-08-16T15:26:29.640Z,30.03
2022-08-16T15:31:37.646Z,30.00
2022-08-16T15:36:41.269Z,30.02
2022-08-16T15:42:27.520Z,30.14
2022-08-16T15:47:34.078Z,30.29
2022-08-16T15:52:38.898Z,30.40
2022-08-16T15:57:43.809Z,30.65
2022-08-16T16:02:49.808Z,30.64
2022-08-16T16:07:55.600Z,30.62
2022-08-16T16:13:04.678Z,30.35
2022-08-16T16:18:09.825Z,30.11
2022-08-16T16:23:15.817Z,29.94
2022-08-16T16:29:06.100Z,29.73
2022-08-16T16:33:50.265Z,29.38
2022-08-16T16:38:54.583Z,28.72
2022-08-16T16:44:01.671Z,28.42
2022-08-16T16:49:08.596Z,28.34
2022-08-16T16:54:22.515Z,27.93
2022-08-16T16:59:33.030Z,27.61
2022-08-16T17:04:36.514Z,27.40
2022-08-16T17:15:07.510Z,27.07
2022-08-16T17:20:13.416Z,26.94
2022-08-16T17:25:16.918Z,26.96
2022-08-16T17:30:29.529Z,26.67
2022-08-16T17:35:55.707Z,26.46
2022-08-16T17:39:26.070Z,27.20
2022-08-16T17:41:00.219Z,26.52
2022-08-16T17:46:07.594Z,26.52
2022-08-16T17:51:31.083Z,26.31
2022-08-16T17:56:34.781Z,26.17
2022-08-16T18:01:39.729Z,26.09
2022-08-16T18:06:43.694Z,25.93
2022-08-16T18:11:47.842Z,26.03
2022-08-16T18:16:54.682Z,26.07
2022-08-16T18:22:15.533Z,26.05
2022-08-16T18:27:25.385Z,26.05
2022-08-16T18:32:31.960Z,25.74
2022-08-16T18:37:35.937Z,25.80
2022-08-16T18:42:39.671Z,25.66
2022-08-16T18:47:44.505Z,25.65
2022-08-16T18:52:53.124Z,25.56
2022-08-16T18:57:56.688Z,25.18
2022-08-16T19:03:07.791Z,24.53
2022-08-16T19:08:15.830Z,24.76
2022-08-16T19:13:22.532Z,25.03
2022-08-16T19:18:28.034Z,25.13
2022-08-16T19:23:41.336Z,25.14
2022-08-16T19:28:50.504Z,25.19
2022-08-16T19:34:04.354Z,25.16
2022-08-16T19:39:11.170Z,25.09
2022-08-16T19:44:15.165Z,24.98
2022-08-16T19:49:20.421Z,24.64
2022-08-16T19:54:23.898Z,24.27
2022-08-16T19:59:39.421Z,24.20
2022-08-16T20:04:45.457Z,24.11
2022-08-16T20:09:49.873Z,24.06
2022-08-16T20:14:53.848Z,24.10
2022-08-16T20:19:58.739Z,24.23
2022-08-16T20:25:05.669Z,24.19
2022-08-16T20:30:11.779Z,24.00
2022-08-16T20:35:20.437Z,23.88
2022-08-16T20:40:34.342Z,23.70
2022-08-16T20:45:40.384Z,23.71
2022-08-16T20:50:45.656Z,23.59
2022-08-16T20:55:49.552Z,23.52
2022-08-16T21:00:53.379Z,23.40
2022-08-16T21:06:03.511Z,23.37
2022-08-16T21:11:14.433Z,23.35
2022-08-16T21:16:19.874Z,23.37
2022-08-16T21:21:33.434Z,23.25
2022-08-16T21:26:39.120Z,23.13
2022-08-16T21:31:43.724Z,23.08
2022-08-16T21:36:50.149Z,23.00
2022-08-16T21:41:54.605Z,22.79
2022-08-16T21:46:59.074Z,22.66
2022-08-16T21:52:06.368Z,22.72
2022-08-16T21:57:11.010Z,22.54
2022-08-16T22:02:18.393Z,22.33
2022-08-16T22:07:25.753Z,22.48
2022-08-16T22:12:29.894Z,22.69
2022-08-16T22:17:33.628Z,22.67
2022-08-16T22:22:42.283Z,22.79
2022-08-16T22:27:47.318Z,22.85
2022-08-16T22:32:50.882Z,22.90
2022-08-16T22:38:50.197Z,22.91
2022-08-16T22:43:20.562Z,22.78
2022-08-16T22:48:23.997Z,22.62
2022-08-16T22:53:28.920Z,22.61
2022-08-16T22:58:36.555Z,22.58
2022-08-16T23:03:41.023Z,22.53
2022-08-16T23:08:45.966Z,22.66
2022-08-16T23:13:53.636Z,22.72
2022-08-16T23:18:57.980Z,22.87
2022-08-16T23:24:03.748Z,22.95
2022-08-16T23:29:07.252Z,22.99
2022-08-16T23:34:26.976Z,22.97
2022-08-16T23:39:32.991Z,22.89
2022-08-16T23:44:55.191Z,22.78
2022-08-16T23:50:03.421Z,22.78
2022-08-16T23:55:10.444Z,22.83
